Time;durP1;ratioP1;P1;durP2;ratioP2;P2;SDS_P1;SDS_P2;PMS_P1;PMS_P2;Temp;Humidity;BMP_temperature;BMP_pressure;BME280_temperature;BME280_humidity;BME280_pressure;Samples;Min_cycle;Max_cycle;Signal;HPM_P1;HPM_P2
2023/07/17 00:01:42;;;;;;;5.35;3.30;;;17.70;99.90;;;;;;4997794;28;20200;-89
2023/07/17 00:04:07;;;;;;;7.15;3.20;;;17.70;99.90;;;;;;5015321;28;20480;-89
2023/07/17 00:06:33;;;;;;;6.00;3.38;;;17.80;99.90;;;;;;4998036;28;20183;-88
2023/07/17 00:08:59;;;;;;;3.92;3.30;;;17.80;99.90;;;;;;4997808;28;20221;-88
2023/07/17 00:11:25;;;;;;;6.70;3.60;;;17.80;99.90;;;;;;4997684;28;20434;-89
2023/07/17 00:13:50;;;;;;;6.20;3.45;;;17.80;99.90;;;;;;4997730;28;20615;-88
2023/07/17 00:16:19;;;;;;;5.07;3.35;;;17.80;99.90;;;;;;5000309;28;20179;-90
2023/07/17 00:18:45;;;;;;;4.93;3.38;;;17.70;99.90;;;;;;5002002;28;20234;-88
2023/07/17 00:21:11;;;;;;;9.27;3.63;;;17.70;99.90;;;;;;5002001;28;20283;-89
2023/07/17 00:23:36;;;;;;;5.28;3.47;;;17.70;99.90;;;;;;5001832;28;20172;-88
2023/07/17 00:26:04;;;;;;;6.30;3.20;;;17.70;99.90;;;;;;5001666;28;20175;-89
2023/07/17 00:28:30;;;;;;;5.38;3.05;;;17.60;99.90;;;;;;5017878;28;20218;-88
2023/07/17 00:30:55;;;;;;;4.38;2.97;;;17.60;99.90;;;;;;5017495;28;20214;-88
2023/07/17 00:33:21;;;;;;;4.60;2.97;;;17.60;99.90;;;;;;5001370;28;20175;-88
2023/07/17 00:35:47;;;;;;;5.15;3.22;;;17.50;99.90;;;;;;5001547;28;20182;-88
2023/07/17 00:38:13;;;;;;;4.72;3.40;;;17.50;99.90;;;;;;5001622;28;20186;-89
2023/07/17 00:40:39;;;;;;;4.88;3.30;;;17.60;99.90;;;;;;5001545;28;20217;-89
2023/07/17 00:43:12;;;;;;;5.55;3.45;;;17.50;99.90;;;;;;5001082;28;20207;-89
2023/07/17 00:45:41;;;;;;;4.13;3.40;;;17.50;99.90;;;;;;5000868;28;20274;-89
2023/07/17 00:48:07;;;;;;;7.75;3.63;;;17.50;99.90;;;;;;5001099;28;20266;-91
2023/07/17 00:50:34;;;;;;;4.28;3.35;;;17.40;99.90;;;;;;5001400;28;20218;-92
2023/07/17 00:53:01;;;;;;;5.18;3.45;;;17.40;99.90;;;;;;5001305;28;20523;-90
2023/07/17 00:55:27;;;;;;;5.88;3.80;;;17.40;99.90;;;;;;5000871;28;20226;-89
2023/07/17 00:57:59;;;;;;;4.57;3.22;;;17.30;99.90;;;;;;5000914;28;20187;-90
2023/07/17 01:00:25;;;;;;;5.13;3.33;;;17.30;99.90;;;;;;5001182;28;20210;-91
2023/07/17 01:02:52;;;;;;;5.28;3.35;;;17.30;99.90;;;;;;5001057;28;20293;-91
2023/07/17 01:05:18;;;;;;;6.45;3.45;;;17.40;99.90;;;;;;5000704;28;20233;-89
2023/07/17 01:07:44;;;;;;;7.80;4.25;;;17.30;99.90;;;;;;5000808;28;20191;-90
2023/07/17 01:10:10;;;;;;;6.30;3.35;;;17.30;99.90;;;;;;5000829;28;20199;-90
2023/07/17 01:12:36;;;;;;;7.05;3.47;;;17.20;99.90;;;;;;5000772;28;20187;-91
2023/07/17 01:15:06;;;;;;;5.05;2.88;;;17.20;99.90;;;;;;5000712;28;20198;-90
2023/07/17 01:17:37;;;;;;;7.22;3.30;;;17.30;99.90;;;;;;5000797;28;20225;-93
2023/07/17 01:20:05;;;;;;;4.43;3.05;;;17.20;99.90;;;;;;5000791;28;20186;-90
2023/07/17 01:22:35;;;;;;;5.63;3.40;;;17.20;99.90;;;;;;5000783;28;20613;-91
2023/07/17 01:25:00;;;;;;;5.03;3.40;;;17.20;99.90;;;;;;5000593;28;20184;-91
2023/07/17 01:27:32;;;;;;;4.57;3.05;;;17.10;99.90;;;;;;5018045;28;20182;-90
2023/07/17 01:29:58;;;;;;;5.32;3.63;;;17.10;99.90;;;;;;5000281;28;20206;-87
2023/07/17 01:32:23;;;;;;;5.70;3.55;;;17.10;99.90;;;;;;5000474;28;20524;-88
2023/07/17 01:34:49;;;;;;;5.07;3.20;;;17.10;99.90;;;;;;5000325;28;20179;-87
2023/07/17 01:37:15;;;;;;;5.10;3.40;;;17.10;99.90;;;;;;5000404;28;20175;-87
2023/07/17 01:39:41;;;;;;;6.57;3.20;;;17.20;99.90;;;;;;5000238;28;20171;-88
2023/07/17 01:42:06;;;;;;;6.82;3.85;;;17.20;99.90;;;;;;5000161;28;20190;-88
2023/07/17 01:44:32;;;;;;;5.85;3.45;;;17.10;99.90;;;;;;4999783;28;20310;-89
2023/07/17 01:46:59;;;;;;;7.43;3.40;;;17.10;99.90;;;;;;5000096;28;20237;-90
2023/07/17 01:49:25;;;;;;;4.70;3.33;;;17.10;99.90;;;;;;5017565;28;20194;-89
2023/07/17 01:51:50;;;;;;;5.15;3.35;;;17.00;99.90;;;;;;5000097;28;20206;-90
2023/07/17 01:54:16;;;;;;;8.23;3.33;;;16.90;99.90;;;;;;5000179;28;20215;-89
2023/07/17 01:56:42;;;;;;;5.80;3.55;;;16.90;99.90;;;;;;5000271;28;20278;-89
2023/07/17 01:59:09;;;;;;;4.40;3.58;;;16.90;99.90;;;;;;4999958;28;20185;-91
2023/07/17 02:01:34;;;;;;;8.98;3.47;;;16.80;99.90;;;;;;4999594;28;20175;-90
2023/07/17 02:04:00;;;;;;;6.25;3.45;;;16.80;99.90;;;;;;4999930;28;20190;-93
2023/07/17 02:06:26;;;;;;;5.22;3.70;;;16.80;99.90;;;;;;5000984;28;20183;-90
2023/07/17 02:08:56;;;;;;;6.75;3.63;;;16.80;99.90;;;;;;5000416;28;20179;-90
2023/07/17 02:11:26;;;;;;;8.32;3.60;;;16.80;99.90;;;;;;5001516;28;20207;-91
2023/07/17 02:13:52;;;;;;;5.07;3.40;;;16.80;99.90;;;;;;4999859;28;20214;-90
2023/07/17 02:16:18;;;;;;;5.95;3.70;;;16.80;99.90;;;;;;4999919;28;20189;-89
2023/07/17 02:18:44;;;;;;;5.95;3.67;;;16.70;99.90;;;;;;5000557;28;20625;-93
2023/07/17 02:21:10;;;;;;;4.53;3.33;;;16.60;99.90;;;;;;4999784;28;20305;-91
2023/07/17 02:23:36;;;;;;;4.93;3.50;;;16.50;99.90;;;;;;4999447;28;20270;-86
2023/07/17 02:26:03;;;;;;;4.68;3.78;;;16.40;99.90;;;;;;4999763;28;20190;-90
2023/07/17 02:28:29;;;;;;;10.30;3.90;;;16.30;99.90;;;;;;4999516;28;20175;-88
2023/07/17 02:30:54;;;;;;;4.35;3.40;;;16.40;99.90;;;;;;5015741;28;20533;-87
2023/07/17 02:33:20;;;;;;;6.90;3.72;;;16.50;99.90;;;;;;4998580;28;20636;-88
2023/07/17 02:35:46;;;;;;;8.95;3.97;;;16.50;99.90;;;;;;4998897;28;20206;-88
2023/07/17 02:38:28;;;;;;;6.80;3.55;;;16.50;99.90;;;;;;4998794;28;20218;-87
2023/07/17 02:40:53;;;;;;;7.78;3.70;;;16.50;99.90;;;;;;4999094;28;20229;-87
2023/07/17 02:43:19;;;;;;;5.03;3.28;;;16.50;99.90;;;;;;4999017;28;20175;-86
2023/07/17 02:45:45;;;;;;;7.72;3.63;;;16.50;99.90;;;;;;4998537;28;20274;-85
2023/07/17 02:48:22;;;;;;;7.40;3.30;;;16.40;99.90;;;;;;4999016;28;20182;-86
2023/07/17 02:50:51;;;;;;;6.80;3.97;;;16.40;99.90;;;;;;4998821;28;20614;-86
2023/07/17 02:53:17;;;;;;;12.13;4.13;;;16.40;99.90;;;;;;4998828;28;20179;-86
2023/07/17 02:55:42;;;;;;;5.22;3.67;;;16.40;99.90;;;;;;5016414;28;20197;-87
2023/07/17 02:58:08;;;;;;;6.68;3.97;;;16.30;99.90;;;;;;4998984;28;20221;-88
2023/07/17 03:00:34;;;;;;;5.60;3.97;;;16.30;99.90;;;;;;4998696;28;20190;-86
2023/07/17 03:03:00;;;;;;;5.45;3.95;;;16.30;99.90;;;;;;4998739;28;20234;-86
2023/07/17 03:05:25;;;;;;;8.00;3.97;;;16.30;99.90;;;;;;4998746;28;20618;-87
2023/07/17 03:07:55;;;;;;;4.80;3.30;;;16.40;99.90;;;;;;4998820;28;20263;-87
2023/07/17 03:10:21;;;;;;;7.47;4.40;;;16.50;99.90;;;;;;5014770;28;20211;-87
2023/07/17 03:12:47;;;;;;;6.53;4.32;;;16.40;99.90;;;;;;4998704;28;20183;-87
2023/07/17 03:15:13;;;;;;;5.20;3.83;;;16.40;99.90;;;;;;4998264;28;20191;-87
2023/07/17 03:17:41;;;;;;;4.65;3.50;;;16.40;99.90;;;;;;4998471;28;20175;-86
2023/07/17 03:20:10;;;;;;;8.02;3.90;;;16.30;99.90;;;;;;5015755;28;20346;-87
2023/07/17 03:22:36;;;;;;;4.65;3.53;;;16.20;99.90;;;;;;4998451;28;20206;-87
2023/07/17 03:25:05;;;;;;;5.53;3.75;;;16.20;99.90;;;;;;4998461;28;20186;-90
2023/07/17 03:27:30;;;;;;;5.05;3.70;;;16.10;99.90;;;;;;4998388;28;20179;-89
2023/07/17 03:29:57;;;;;;;5.75;4.05;;;16.10;99.90;;;;;;4998246;28;20520;-90
2023/07/17 03:32:23;;;;;;;4.25;3.47;;;16.00;99.90;;;;;;4998841;28;20179;-89
2023/07/17 03:34:49;;;;;;;6.07;4.05;;;16.00;99.90;;;;;;4998306;28;20214;-89
2023/07/17 03:37:14;;;;;;;11.27;4.30;;;16.00;99.90;;;;;;5015730;28;20195;-88
2023/07/17 03:39:42;;;;;;;8.52;4.28;;;16.00;99.90;;;;;;4997952;28;20175;-89
2023/07/17 03:42:10;;;;;;;9.07;4.30;;;16.00;99.90;;;;;;4998205;28;20229;-89
2023/07/17 03:44:37;;;;;;;5.25;4.20;;;16.10;99.90;;;;;;4997851;28;20669;-88
2023/07/17 03:47:06;;;;;;;6.90;4.15;;;16.10;99.90;;;;;;4997869;28;20614;-91
2023/07/17 03:49:33;;;;;;;5.72;3.78;;;16.10;99.90;;;;;;4997229;28;20180;-87
2023/07/17 03:51:59;;;;;;;5.80;4.60;;;16.20;99.90;;;;;;5015465;28;20638;-86
2023/07/17 03:54:25;;;;;;;5.95;3.83;;;16.20;99.90;;;;;;4997778;28;20190;-87
2023/07/17 03:56:51;;;;;;;5.05;3.92;;;16.20;99.90;;;;;;4997920;28;20244;-86
2023/07/17 03:59:27;;;;;;;6.60;3.85;;;16.10;99.90;;;;;;4997933;28;20678;-86
2023/07/17 04:01:53;;;;;;;6.00;3.95;;;16.10;99.90;;;;;;4997967;28;20201;-89
2023/07/17 04:04:18;;;;;;;6.20;4.15;;;16.20;99.90;;;;;;4998090;28;20234;-88
2023/07/17 04:06:45;;;;;;;9.32;4.20;;;16.20;99.90;;;;;;4997903;28;20179;-86
2023/07/17 04:09:12;;;;;;;6.97;4.22;;;16.20;99.90;;;;;;4997494;28;20210;-86
2023/07/17 04:11:39;;;;;;;7.32;4.75;;;16.10;99.90;;;;;;4997584;28;20622;-86
2023/07/17 04:14:08;;;;;;;7.22;4.05;;;16.20;99.90;;;;;;4997026;28;20637;-88
2023/07/17 04:16:36;;;;;;;7.40;4.10;;;16.20;99.90;;;;;;4996965;28;20253;-89
2023/07/17 04:19:02;;;;;;;7.82;4.47;;;16.20;99.90;;;;;;4997488;28;20185;-90
2023/07/17 04:21:27;;;;;;;9.23;4.10;;;16.30;99.90;;;;;;4998194;28;20270;-89
2023/07/17 04:23:53;;;;;;;5.03;4.20;;;16.30;99.90;;;;;;4997722;28;20217;-89
2023/07/17 04:26:19;;;;;;;8.05;3.88;;;16.30;99.90;;;;;;4997757;28;20183;-90
2023/07/17 04:28:53;;;;;;;5.03;3.72;;;16.30;99.90;;;;;;4998227;28;20247;-90
2023/07/17 04:31:19;;;;;;;6.95;4.15;;;16.40;99.90;;;;;;4997342;28;20210;-89
2023/07/17 04:33:44;;;;;;;9.40;4.15;;;16.40;99.90;;;;;;4997628;28;20179;-90
2023/07/17 04:36:10;;;;;;;4.95;3.97;;;16.50;99.90;;;;;;4997674;28;20187;-90
2023/07/17 04:38:36;;;;;;;9.20;4.50;;;16.50;99.90;;;;;;4997968;28;20190;-89
2023/07/17 04:41:03;;;;;;;6.80;4.07;;;16.60;99.90;;;;;;4997716;28;20180;-90
2023/07/17 04:43:28;;;;;;;5.97;4.10;;;16.80;99.90;;;;;;4997546;28;20175;-90
2023/07/17 04:45:54;;;;;;;10.38;4.40;;;16.80;99.90;;;;;;4997256;28;20669;-91
2023/07/17 04:48:20;;;;;;;7.55;4.28;;;16.80;99.90;;;;;;4997653;28;20203;-89
2023/07/17 04:50:57;;;;;;;7.32;4.70;;;16.90;99.90;;;;;;4997601;28;20223;-93
2023/07/17 04:53:23;;;;;;;8.40;4.05;;;17.10;99.90;;;;;;5013719;28;20185;-89
2023/07/17 04:55:49;;;;;;;9.13;4.18;;;17.30;99.90;;;;;;4997378;28;20183;-90
2023/07/17 04:58:15;;;;;;;6.78;4.35;;;17.40;99.90;;;;;;4997562;28;20182;-90
2023/07/17 05:00:47;;;;;;;8.98;4.80;;;17.50;99.90;;;;;;4997269;28;20230;-88
2023/07/17 05:03:16;;;;;;;6.05;4.18;;;17.60;99.90;;;;;;5001047;28;20175;-88
2023/07/17 05:05:48;;;;;;;7.40;4.45;;;17.60;99.90;;;;;;5001197;28;20510;-87
2023/07/17 05:08:13;;;;;;;8.93;3.95;;;17.50;99.90;;;;;;5000965;28;20225;-89
2023/07/17 05:11:11;;;;;;;7.05;4.30;;;17.50;99.90;;;;;;5000607;28;20665;-89
2023/07/17 05:13:37;;;;;;;9.40;4.30;;;17.50;99.90;;;;;;4997832;28;20179;-84
2023/07/17 05:16:03;;;;;;;8.70;4.55;;;17.50;99.90;;;;;;5000369;28;20637;-86
2023/07/17 05:18:29;;;;;;;8.25;4.20;;;17.50;99.90;;;;;;5000557;28;20234;-88
2023/07/17 05:20:54;;;;;;;6.00;4.00;;;17.50;99.90;;;;;;5000612;28;20190;-89
2023/07/17 05:23:20;;;;;;;9.25;4.75;;;17.50;99.90;;;;;;5000721;28;20183;-86
2023/07/17 05:25:54;;;;;;;7.88;4.40;;;17.50;99.90;;;;;;5000655;28;20183;-86
2023/07/17 05:28:21;;;;;;;5.50;3.97;;;17.60;99.90;;;;;;5000476;28;20167;-87
2023/07/17 05:30:57;;;;;;;8.20;4.43;;;17.60;99.90;;;;;;4999999;28;20207;-86
2023/07/17 05:33:23;;;;;;;7.82;4.18;;;17.80;99.90;;;;;;5000476;28;20924;-87
2023/07/17 05:35:50;;;;;;;6.38;3.97;;;17.90;99.90;;;;;;5016938;28;20495;-89
2023/07/17 05:38:16;;;;;;;9.27;4.10;;;18.00;99.90;;;;;;5000569;28;20539;-87
2023/07/17 05:41:12;;;;;;;6.38;3.90;;;18.10;99.90;;;;;;5000494;28;20189;-88
2023/07/17 05:43:38;;;;;;;6.40;4.07;;;18.30;99.90;;;;;;4984084;28;20202;-90
2023/07/17 05:46:03;;;;;;;7.97;3.95;;;18.40;99.90;;;;;;4999975;28;20203;-89
2023/07/17 05:48:29;;;;;;;6.00;3.80;;;18.40;99.90;;;;;;5016861;28;20245;-88
2023/07/17 05:51:00;;;;;;;6.53;4.40;;;18.30;99.90;;;;;;5000132;28;20664;-87
2023/07/17 05:53:26;;;;;;;6.57;3.70;;;18.30;99.90;;;;;;5000129;28;20187;-87
2023/07/17 05:55:52;;;;;;;5.95;3.83;;;18.30;99.90;;;;;;4999979;28;20180;-87
2023/07/17 05:58:18;;;;;;;7.95;4.03;;;18.30;99.90;;;;;;4999993;28;20199;-89
2023/07/17 06:00:51;;;;;;;6.15;3.72;;;18.30;99.90;;;;;;4999935;28;20202;-90
2023/07/17 06:03:17;;;;;;;8.60;3.63;;;18.40;99.90;;;;;;4999412;28;20178;-89
2023/07/17 06:05:43;;;;;;;5.75;3.65;;;18.40;99.90;;;;;;5000243;28;20187;-86
2023/07/17 06:08:10;;;;;;;5.80;4.10;;;18.40;99.90;;;;;;5000044;28;20629;-91
2023/07/17 06:10:39;;;;;;;5.00;3.38;;;18.40;99.90;;;;;;4999917;28;20279;-86
2023/07/17 06:13:05;;;;;;;5.43;3.22;;;18.50;99.90;;;;;;4999311;28;20183;-87
2023/07/17 06:15:30;;;;;;;5.20;3.53;;;18.60;99.90;;;;;;4999694;28;20175;-86
2023/07/17 06:17:56;;;;;;;6.93;3.35;;;18.60;99.90;;;;;;4999907;28;20195;-87
2023/07/17 06:20:39;;;;;;;6.18;3.70;;;18.80;99.90;;;;;;4999693;28;20183;-88
2023/07/17 06:23:04;;;;;;;5.53;3.30;;;18.90;99.90;;;;;;4999754;28;20179;-87
2023/07/17 06:25:30;;;;;;;5.75;3.35;;;19.10;99.90;;;;;;4999876;28;20179;-90
2023/07/17 06:27:56;;;;;;;6.40;3.70;;;19.20;99.90;;;;;;4999979;28;20183;-90
2023/07/17 06:30:26;;;;;;;4.82;3.30;;;19.20;99.90;;;;;;4999315;28;20298;-86
2023/07/17 06:32:52;;;;;;;4.97;3.38;;;19.30;99.90;;;;;;4999312;28;20227;-88
2023/07/17 06:35:18;;;;;;;6.30;3.17;;;19.40;99.90;;;;;;4998936;28;20257;-86
2023/07/17 06:37:44;;;;;;;5.38;3.15;;;19.50;99.90;;;;;;4999274;28;20585;-88
2023/07/17 06:40:11;;;;;;;5.65;3.58;;;19.50;99.90;;;;;;4999903;28;20215;-88
2023/07/17 06:42:37;;;;;;;7.05;3.30;;;19.50;99.90;;;;;;4999394;28;20226;-93
2023/07/17 06:45:03;;;;;;;5.70;3.40;;;19.50;99.90;;;;;;4998966;28;20231;-88
2023/07/17 06:47:28;;;;;;;6.20;2.97;;;19.50;99.90;;;;;;4992885;28;20180;-91
2023/07/17 06:49:54;;;;;;;5.03;2.97;;;19.50;99.90;;;;;;4980365;28;20187;-93
2023/07/17 06:52:20;;;;;;;6.50;3.30;;;19.60;99.90;;;;;;4979685;28;20180;-93
2023/07/17 06:54:46;;;;;;;5.63;3.15;;;19.70;99.90;;;;;;4979219;28;20242;-91
2023/07/17 06:57:11;;;;;;;6.00;3.20;;;19.70;99.90;;;;;;4979522;28;20175;-93
2023/07/17 06:59:37;;;;;;;5.20;3.05;;;19.90;99.90;;;;;;4979468;28;20258;-92
2023/07/17 07:02:09;;;;;;;5.05;3.40;;;19.90;99.90;;;;;;4979133;28;20275;-88
2023/07/17 07:04:34;;;;;;;5.82;3.33;;;20.20;99.90;;;;;;4979369;28;20227;-93
2023/07/17 07:07:00;;;;;;;6.65;3.40;;;20.30;99.90;;;;;;4980486;28;20176;-92
2023/07/17 07:09:26;;;;;;;4.70;2.90;;;20.40;99.90;;;;;;4997009;28;20629;-94
2023/07/17 07:11:54;;;;;;;6.20;2.92;;;20.50;99.90;;;;;;4979609;28;20215;-89
2023/07/17 07:14:19;;;;;;;6.45;2.78;;;20.60;99.90;;;;;;4979190;28;20253;-90
2023/07/17 07:16:45;;;;;;;7.10;3.00;;;20.80;99.90;;;;;;4979359;28;20239;-87
2023/07/17 07:19:11;;;;;;;4.25;3.00;;;21.00;99.90;;;;;;4979028;28;20172;-89
2023/07/17 07:21:38;;;;;;;6.75;3.00;;;21.10;99.90;;;;;;4979875;28;20180;-90
2023/07/17 07:24:04;;;;;;;5.85;3.10;;;21.30;99.90;;;;;;4979064;28;20172;-90
2023/07/17 07:26:31;;;;;;;7.90;3.00;;;21.40;99.90;;;;;;4979167;28;20191;-93
2023/07/17 07:28:57;;;;;;;5.53;2.55;;;21.50;99.90;;;;;;4978940;28;20179;-93
2023/07/17 07:31:27;;;;;;;5.38;3.10;;;21.60;99.90;;;;;;4978484;28;20219;-90
2023/07/17 07:33:52;;;;;;;4.60;3.13;;;21.70;99.90;;;;;;4979041;28;20176;-91
2023/07/17 07:36:18;;;;;;;5.30;2.80;;;21.80;99.90;;;;;;4978958;28;20690;-91
2023/07/17 07:38:44;;;;;;;6.82;3.10;;;22.00;99.90;;;;;;4979314;28;20492;-91
2023/07/17 07:41:10;;;;;;;8.15;3.35;;;22.10;99.90;;;;;;4978739;28;20646;-93
2023/07/17 07:43:35;;;;;;;5.90;2.90;;;22.20;99.90;;;;;;4978907;28;20183;-95
2023/07/17 07:46:01;;;;;;;5.38;2.88;;;22.20;99.90;;;;;;4997565;28;20740;-91
2023/07/17 07:48:27;;;;;;;6.38;2.88;;;22.30;99.90;;;;;;4998313;28;20214;-91
2023/07/17 07:51:03;;;;;;;5.57;2.97;;;22.40;99.90;;;;;;4998053;28;20207;-91
2023/07/17 07:53:30;;;;;;;5.63;3.20;;;22.60;99.90;;;;;;4998140;28;20182;-94
2023/07/17 07:55:56;;;;;;;5.43;2.80;;;22.70;99.90;;;;;;4998151;28;20183;-93
2023/07/17 07:58:22;;;;;;;4.78;2.63;;;22.70;98.80;;;;;;4998404;28;20229;-93
2023/07/17 08:00:47;;;;;;;5.03;2.47;;;22.90;98.70;;;;;;4996789;28;20186;-94
2023/07/17 08:03:13;;;;;;;4.88;2.67;;;22.90;99.20;;;;;;4998071;28;20183;-88
2023/07/17 08:05:39;;;;;;;5.63;3.00;;;22.80;99.30;;;;;;4998165;28;20179;-87
2023/07/17 08:08:04;;;;;;;6.75;3.22;;;22.90;99.30;;;;;;5015262;28;20246;-94
2023/07/17 08:10:30;;;;;;;5.15;3.22;;;22.80;99.50;;;;;;4997688;28;20253;-92
2023/07/17 08:13:02;;;;;;;4.00;2.70;;;22.80;99.80;;;;;;4997970;28;20617;-91
2023/07/17 08:15:28;;;;;;;8.38;3.28;;;22.80;99.30;;;;;;4997336;28;20272;-92
2023/07/17 08:17:53;;;;;;;5.25;2.83;;;22.80;98.60;;;;;;4997679;28;20271;-90
2023/07/17 08:20:19;;;;;;;6.03;2.45;;;22.60;99.00;;;;;;4997886;28;20175;-92
2023/07/17 08:22:54;;;;;;;7.03;2.80;;;22.50;99.30;;;;;;4997816;28;20179;-91
2023/07/17 08:25:23;;;;;;;4.72;2.45;;;22.50;99.50;;;;;;4998227;28;20518;-94
2023/07/17 08:27:49;;;;;;;3.85;2.53;;;22.60;98.80;;;;;;5015627;28;20187;-92
2023/07/17 08:30:15;;;;;;;3.35;2.15;;;22.70;99.20;;;;;;4998194;28;20233;-92
2023/07/17 08:32:40;;;;;;;5.28;2.35;;;22.80;97.60;;;;;;4997467;28;20533;-96
2023/07/17 08:35:07;;;;;;;3.35;2.20;;;22.90;97.60;;;;;;4998481;28;20175;-94
2023/07/17 08:37:33;;;;;;;5.07;2.35;;;23.00;97.40;;;;;;5001058;28;20241;-93
2023/07/17 08:40:00;;;;;;;5.47;2.30;;;23.00;96.60;;;;;;5001891;28;20175;-93
2023/07/17 08:43:00;;;;;;;6.40;2.25;;;22.90;96.60;;;;;;5020055;28;20179;-91
2023/07/17 08:45:26;;;;;;;2.45;1.35;;;22.80;96.40;;;;;;5001451;28;20231;-92
2023/07/17 08:47:54;;;;;;;2.55;1.60;;;22.70;96.10;;;;;;5001718;28;20180;-89
2023/07/17 08:50:22;;;;;;;4.80;1.90;;;22.70;96.90;;;;;;5001450;28;20203;-89
2023/07/17 08:52:55;;;;;;;2.50;1.75;;;22.90;97.70;;;;;;5001137;28;20610;-89
2023/07/17 08:55:21;;;;;;;3.45;1.75;;;23.10;97.20;;;;;;5001206;28;20176;-88
2023/07/17 08:57:52;;;;;;;3.70;1.67;;;23.30;95.90;;;;;;5001429;28;20186;-90
2023/07/17 09:00:19;;;;;;;5.35;1.60;;;23.30;95.60;;;;;;5000775;28;20175;-90
2023/07/17 09:02:45;;;;;;;4.97;1.85;;;23.30;94.90;;;;;;5001215;28;20237;-90
2023/07/17 09:05:11;;;;;;;6.57;1.95;;;23.40;95.50;;;;;;5017588;28;20179;-89
2023/07/17 09:07:37;;;;;;;3.65;1.70;;;23.40;95.80;;;;;;5001895;28;20521;-88
2023/07/17 09:10:20;;;;;;;3.00;1.50;;;23.40;95.60;;;;;;5000902;28;20186;-89
2023/07/17 09:12:57;;;;;;;5.13;1.83;;;23.50;96.20;;;;;;5001023;28;20618;-91
2023/07/17 09:15:25;;;;;;;3.47;1.65;;;23.70;95.70;;;;;;5001154;28;20194;-92
2023/07/17 09:17:51;;;;;;;3.10;2.00;;;23.60;95.30;;;;;;5001020;28;20242;-92
2023/07/17 09:20:18;;;;;;;2.33;1.80;;;23.80;96.50;;;;;;5000600;28;20544;-87
2023/07/17 09:22:46;;;;;;;5.70;2.05;;;23.90;96.00;;;;;;5000719;28;20618;-87
2023/07/17 09:25:14;;;;;;;3.03;1.70;;;23.80;94.00;;;;;;5000872;28;20197;-87
2023/07/17 09:27:48;;;;;;;6.97;2.30;;;23.90;93.80;;;;;;5000808;28;20622;-89
2023/07/17 09:30:16;;;;;;;2.67;1.75;;;23.90;94.00;;;;;;5000745;28;20182;-88
2023/07/17 09:32:45;;;;;;;4.53;1.63;;;23.80;93.80;;;;;;5000692;28;20264;-88
2023/07/17 09:35:12;;;;;;;2.15;1.33;;;23.80;95.50;;;;;;5000044;28;20167;-90
2023/07/17 09:37:42;;;;;;;2.67;1.52;;;23.80;93.80;;;;;;5017088;28;20187;-86
2023/07/17 09:40:13;;;;;;;2.30;1.60;;;23.90;94.70;;;;;;4999812;28;20172;-87
2023/07/17 09:42:56;;;;;;;5.60;1.55;;;24.00;92.20;;;;;;5000631;28;20520;-89
2023/07/17 09:45:23;;;;;;;3.33;1.42;;;23.90;92.60;;;;;;4999794;28;20223;-85
2023/07/17 09:47:52;;;;;;;3.47;1.52;;;24.00;93.40;;;;;;5000322;28;20636;-89
2023/07/17 09:50:23;;;;;;;4.30;1.60;;;24.10;92.00;;;;;;5000159;28;20289;-85
2023/07/17 09:52:50;;;;;;;3.92;1.75;;;24.10;92.90;;;;;;5000061;28;20202;-88
2023/07/17 09:55:17;;;;;;;3.05;1.70;;;24.30;94.30;;;;;;5000458;28;20183;-91
2023/07/17 09:57:44;;;;;;;2.72;1.80;;;24.30;92.30;;;;;;4999860;28;20233;-89
2023/07/17 10:00:14;;;;;;;2.47;1.63;;;24.40;92.30;;;;;;4999414;28;20176;-93
2023/07/17 10:02:53;;;;;;;4.10;1.80;;;24.50;92.80;;;;;;5000285;28;20186;-89
2023/07/17 10:05:20;;;;;;;4.80;1.70;;;24.40;90.30;;;;;;4999944;28;20618;-87
2023/07/17 10:07:49;;;;;;;3.80;1.77;;;24.40;91.10;;;;;;4999514;28;20218;-90
2023/07/17 10:10:14;;;;;;;4.68;1.88;;;24.50;90.70;;;;;;4999774;28;20183;-87
2023/07/17 10:12:48;;;;;;;4.15;1.70;;;24.40;90.00;;;;;;4999618;28;20183;-89
2023/07/17 10:15:15;;;;;;;5.00;1.95;;;24.50;91.00;;;;;;4999463;28;20269;-89
2023/07/17 10:17:41;;;;;;;2.35;1.55;;;24.50;91.70;;;;;;4999860;28;20175;-89
2023/07/17 10:20:09;;;;;;;3.90;1.67;;;24.50;90.10;;;;;;4999462;28;20487;-90
2023/07/17 10:22:44;;;;;;;3.15;1.50;;;24.50;91.70;;;;;;4999346;28;20183;-87
2023/07/17 10:25:16;;;;;;;2.80;1.60;;;24.70;91.70;;;;;;4999475;28;20624;-91
2023/07/17 10:28:04;;;;;;;6.97;2.00;;;24.80;89.70;;;;;;5016847;28;20164;-87
2023/07/17 10:30:35;;;;;;;2.50;1.60;;;24.80;90.00;;;;;;5015862;28;20219;-88
2023/07/17 10:33:16;;;;;;;2.88;1.67;;;24.60;90.10;;;;;;4999195;28;20350;-87
2023/07/17 10:35:55;;;;;;;6.40;1.80;;;24.40;90.00;;;;;;4999477;28;20501;-84
2023/07/17 10:38:25;;;;;;;5.68;1.75;;;24.40;90.80;;;;;;4999242;28;20175;-86
2023/07/17 10:41:13;;;;;;;4.18;1.88;;;24.70;91.90;;;;;;4998998;28;20179;-85
2023/07/17 10:44:01;;;;;;;2.65;1.77;;;24.70;89.90;;;;;;4998990;28;20185;-86
2023/07/17 10:46:29;;;;;;;4.00;1.85;;;24.30;88.20;;;;;;4979644;28;20288;-86
2023/07/17 10:49:05;;;;;;;6.90;1.80;;;24.20;89.80;;;;;;4979455;28;20280;-86
2023/07/17 10:51:30;;;;;;;5.90;2.10;;;24.20;90.60;;;;;;4979097;28;20211;-86
2023/07/17 10:53:56;;;;;;;3.47;1.90;;;24.30;90.70;;;;;;4979296;28;20246;-88
2023/07/17 10:56:22;;;;;;;2.47;1.80;;;24.40;90.00;;;;;;4979346;28;20176;-86
2023/07/17 10:58:49;;;;;;;4.93;1.58;;;24.20;90.10;;;;;;4978874;28;20172;-91
2023/07/17 11:01:15;;;;;;;4.22;2.00;;;24.10;90.30;;;;;;4978996;28;20211;-89
2023/07/17 11:03:47;;;;;;;6.50;1.90;;;24.10;90.20;;;;;;4979147;28;20172;-88
2023/07/17 11:06:17;;;;;;;3.05;1.92;;;24.00;89.20;;;;;;4979232;28;20176;-87
2023/07/17 11:08:50;;;;;;;4.35;1.70;;;24.00;90.00;;;;;;4979128;28;20182;-88
2023/07/17 11:11:17;;;;;;;5.20;1.70;;;24.30;90.60;;;;;;4978999;28;20220;-87
2023/07/17 11:13:48;;;;;;;4.13;1.83;;;24.70;90.30;;;;;;4979095;28;20176;-86
2023/07/17 11:16:16;;;;;;;4.68;1.80;;;24.90;89.00;;;;;;4978953;28;20191;-90
2023/07/17 11:18:53;;;;;;;6.30;2.03;;;25.10;89.40;;;;;;4978844;28;20190;-86
2023/07/17 11:21:21;;;;;;;3.30;1.90;;;25.20;86.30;;;;;;4978970;28;20259;-91
2023/07/17 11:23:51;;;;;;;3.05;1.73;;;25.00;89.60;;;;;;4978707;28;20175;-86
2023/07/17 11:26:19;;;;;;;4.28;1.80;;;25.00;89.90;;;;;;4978873;28;20183;-86
2023/07/17 11:28:56;;;;;;;4.90;2.10;;;25.10;89.80;;;;;;4978871;28;20183;-86
2023/07/17 11:31:27;;;;;;;3.17;1.70;;;25.10;89.00;;;;;;4978445;28;20211;-85
2023/07/17 11:33:58;;;;;;;4.88;1.88;;;25.10;90.50;;;;;;4994708;28;20211;-89
2023/07/17 11:36:31;;;;;;;3.58;1.80;;;25.20;89.00;;;;;;4978514;28;20172;-84
2023/07/17 11:39:16;;;;;;;4.72;1.85;;;25.40;89.90;;;;;;4979447;28;20191;-90
2023/07/17 11:41:43;;;;;;;5.18;2.10;;;25.60;86.30;;;;;;4978458;28;20266;-87
2023/07/17 11:44:09;;;;;;;2.50;1.65;;;25.80;88.50;;;;;;4982229;28;20211;-85
2023/07/17 11:46:35;;;;;;;2.67;1.75;;;25.90;88.50;;;;;;5012418;28;20285;-87
2023/07/17 11:49:00;;;;;;;7.43;2.30;;;26.00;88.70;;;;;;4997880;28;20179;-87
2023/07/17 11:51:26;;;;;;;3.55;1.90;;;25.80;87.30;;;;;;5015233;28;20215;-86
2023/07/17 11:53:55;;;;;;;3.75;2.03;;;25.80;87.10;;;;;;4997702;28;20517;-87
2023/07/17 11:56:32;;;;;;;6.20;1.90;;;25.80;88.00;;;;;;4997938;28;20183;-88
2023/07/17 11:58:57;;;;;;;3.17;1.92;;;25.90;88.50;;;;;;4997822;28;20175;-88
2023/07/17 12:01:23;;;;;;;4.00;1.77;;;25.80;87.50;;;;;;4997431;28;20182;-85
2023/07/17 12:03:49;;;;;;;3.45;1.65;;;25.90;88.90;;;;;;4997466;28;20218;-86
2023/07/17 12:06:14;;;;;;;3.83;2.03;;;26.00;87.90;;;;;;4997495;28;20183;-87
2023/07/17 12:08:41;;;;;;;4.90;2.17;;;25.90;86.00;;;;;;4997495;28;20214;-91
2023/07/17 12:11:07;;;;;;;6.20;2.50;;;25.60;88.60;;;;;;4996919;28;20206;-87
2023/07/17 12:13:32;;;;;;;3.15;2.00;;;25.00;86.40;;;;;;4997466;28;20526;-87
2023/07/17 12:15:59;;;;;;;5.20;2.10;;;24.90;87.60;;;;;;4997514;28;20191;-90
2023/07/17 12:18:25;;;;;;;4.10;1.75;;;25.10;88.60;;;;;;5015351;28;20225;-87
2023/07/17 12:20:50;;;;;;;2.75;1.85;;;25.30;88.40;;;;;;4997831;28;20174;-88
2023/07/17 12:23:18;;;;;;;3.67;1.80;;;25.40;87.80;;;;;;4997324;28;20618;-88
2023/07/17 12:25:45;;;;;;;5.25;1.90;;;25.50;90.00;;;;;;4997580;28;20179;-86
2023/07/17 12:28:11;;;;;;;5.38;2.10;;;25.70;86.60;;;;;;4997464;28;20599;-85
2023/07/17 12:30:37;;;;;;;4.25;2.20;;;25.80;87.40;;;;;;4997224;28;20253;-87
2023/07/17 12:33:02;;;;;;;5.75;2.15;;;25.60;87.60;;;;;;5014857;28;20182;-85
2023/07/17 12:35:28;;;;;;;8.48;2.20;;;25.30;87.00;;;;;;4997276;28;20625;-86
2023/07/17 12:37:54;;;;;;;6.10;2.28;;;25.00;84.70;;;;;;4997397;28;20211;-84
2023/07/17 12:40:20;;;;;;;4.65;2.45;;;24.70;87.60;;;;;;4997561;28;20211;-85
2023/07/17 12:42:46;;;;;;;6.32;2.00;;;24.90;86.40;;;;;;4997583;28;20183;-87
2023/07/17 12:45:12;;;;;;;5.20;1.85;;;25.20;87.40;;;;;;4997122;28;20238;-88
2023/07/17 12:47:38;;;;;;;4.65;2.20;;;25.30;87.90;;;;;;4997158;28;20179;-93
2023/07/17 12:50:04;;;;;;;4.47;2.42;;;25.60;88.20;;;;;;4997564;28;20175;-89